Time;durP1;ratioP1;P1;durP2;ratioP2;P2;SDS_P1;SDS_P2;PMS_P1;PMS_P2;Temp;Humidity;BMP_temperature;BMP_pressure;BME280_temperature;BME280_humidity;BME280_pressure;Samples;Min_cycle;Max_cycle;Signal;HPM_P1;HPM_P2
2022/10/11 04:00:46;;;;;;;0.70;0.70;;;8.40;99.90;;;;;;6206444;22;20242;-70
2022/10/11 04:03:12;;;;;;;2.70;1.70;;;8.40;99.90;;;;;;6244090;23;20169;-70
2022/10/11 04:05:39;;;;;;;1.55;1.55;;;8.40;99.90;;;;;;6243735;23;20206;-71
2022/10/11 04:08:06;;;;;;;0.93;0.93;;;8.40;99.90;;;;;;6244285;23;20531;-70
2022/10/11 04:10:33;;;;;;;0.90;0.90;;;8.40;99.90;;;;;;6244750;22;20200;-69
2022/10/11 04:13:01;;;;;;;7.88;1.08;;;8.40;99.90;;;;;;6243856;23;20187;-70
2022/10/11 04:15:28;;;;;;;7.57;1.25;;;8.40;99.90;;;;;;6243772;22;20211;-69
2022/10/11 04:17:56;;;;;;;1.50;0.85;;;8.40;99.90;;;;;;6244361;23;20191;-68
2022/10/11 04:20:24;;;;;;;5.97;1.27;;;8.40;99.90;;;;;;6244037;23;20179;-69
2022/10/11 04:22:50;;;;;;;12.68;2.45;;;8.30;99.90;;;;;;6243310;23;20193;-68
2022/10/11 04:25:17;;;;;;;7.50;1.95;;;8.30;99.90;;;;;;6243635;22;20655;-68
2022/10/11 04:27:44;;;;;;;4.55;1.10;;;8.30;99.90;;;;;;6243896;23;20637;-69
2022/10/11 04:30:12;;;;;;;3.22;1.10;;;8.30;99.90;;;;;;6244457;23;20538;-69
2022/10/11 04:32:39;;;;;;;1.85;0.90;;;8.30;99.90;;;;;;6243491;23;20187;-68
2022/10/11 04:35:07;;;;;;;1.02;1.02;;;8.20;99.90;;;;;;6243308;22;20213;-68
2022/10/11 04:37:34;;;;;;;3.80;1.02;;;8.20;99.90;;;;;;6243538;23;20187;-69
2022/10/11 04:40:01;;;;;;;6.53;1.25;;;8.20;99.90;;;;;;6243666;23;20414;-69
2022/10/11 04:42:27;;;;;;;10.43;1.00;;;8.20;99.90;;;;;;6243835;23;20190;-68
2022/10/11 04:44:54;;;;;;;1.05;1.05;;;8.20;99.90;;;;;;6243474;22;20210;-68
2022/10/11 04:47:21;;;;;;;2.38;0.70;;;8.10;99.90;;;;;;6243799;23;20381;-69
2022/10/11 04:49:47;;;;;;;1.42;1.30;;;8.10;99.90;;;;;;6243009;23;20187;-68
2022/10/11 04:52:15;;;;;;;2.35;0.70;;;8.10;99.90;;;;;;6243282;23;20639;-69
2022/10/11 04:54:42;;;;;;;5.43;2.10;;;8.10;99.90;;;;;;6243605;22;20511;-70
2022/10/11 04:57:09;;;;;;;0.82;0.82;;;8.10;99.90;;;;;;6243620;23;20175;-69
2022/10/11 04:59:36;;;;;;;1.00;0.85;;;8.10;99.90;;;;;;6243822;23;20191;-69
2022/10/11 05:02:02;;;;;;;8.23;1.85;;;8.10;99.90;;;;;;6243908;23;20474;-69
2022/10/11 05:04:29;;;;;;;1.05;1.05;;;8.00;99.90;;;;;;6243472;22;20202;-70
2022/10/11 05:06:56;;;;;;;1.77;1.67;;;8.00;99.90;;;;;;6242356;23;20209;-69
2022/10/11 05:09:24;;;;;;;1.20;0.80;;;8.00;99.90;;;;;;6243754;23;20182;-68
2022/10/11 05:11:51;;;;;;;0.93;0.93;;;7.90;99.90;;;;;;6243722;23;20186;-70
2022/10/11 05:14:17;;;;;;;1.75;1.65;;;8.00;99.90;;;;;;6243199;22;20210;-69
2022/10/11 05:16:44;;;;;;;2.20;2.00;;;7.90;99.90;;;;;;6243227;23;20637;-68
2022/10/11 05:19:11;;;;;;;6.53;1.75;;;7.90;99.90;;;;;;6243460;23;20186;-69
2022/10/11 05:21:37;;;;;;;3.03;1.58;;;7.90;99.90;;;;;;6242222;23;20202;-69
2022/10/11 05:24:05;;;;;;;1.40;1.17;;;7.90;99.90;;;;;;6243872;22;20205;-68
2022/10/11 05:26:33;;;;;;;1.38;1.35;;;7.90;99.90;;;;;;6243540;23;20222;-69
2022/10/11 05:28:59;;;;;;;2.00;1.88;;;7.90;99.90;;;;;;6243900;23;20187;-69
2022/10/11 05:31:26;;;;;;;7.20;1.30;;;7.90;99.90;;;;;;6243592;23;20197;-69
2022/10/11 05:33:53;;;;;;;2.92;1.48;;;7.90;99.90;;;;;;6243474;22;20188;-68
2022/10/11 05:36:20;;;;;;;3.70;1.95;;;7.90;99.90;;;;;;6242686;23;20175;-68
2022/10/11 05:38:46;;;;;;;1.73;1.63;;;7.90;99.90;;;;;;6243986;23;20183;-68
2022/10/11 05:41:14;;;;;;;4.78;1.50;;;8.00;99.90;;;;;;6243598;23;20187;-69
2022/10/11 05:43:43;;;;;;;1.75;1.75;;;8.00;99.90;;;;;;6243434;23;20517;-69
2022/10/11 05:46:10;;;;;;;1.98;1.88;;;8.00;99.90;;;;;;6243156;22;20302;-69
2022/10/11 05:48:37;;;;;;;1.27;1.17;;;8.00;99.90;;;;;;6243355;23;20498;-68
2022/10/11 05:51:06;;;;;;;1.27;1.27;;;8.10;99.90;;;;;;6243049;23;20180;-69
2022/10/11 05:53:33;;;;;;;1.38;1.35;;;8.10;99.90;;;;;;6242847;23;20179;-69
2022/10/11 05:56:00;;;;;;;2.78;1.15;;;8.10;99.90;;;;;;6242974;22;20199;-69
2022/10/11 05:58:27;;;;;;;3.33;0.75;;;8.20;99.90;;;;;;6243200;23;20273;-69
2022/10/11 06:00:56;;;;;;;3.63;1.85;;;8.20;99.90;;;;;;6243191;23;20191;-69
2022/10/11 06:03:23;;;;;;;1.95;1.85;;;8.20;99.90;;;;;;6242918;23;20469;-70
2022/10/11 06:05:49;;;;;;;1.90;1.75;;;8.30;99.90;;;;;;6241890;22;20649;-68
2022/10/11 06:08:16;;;;;;;0.80;0.80;;;8.30;99.90;;;;;;6242335;23;20495;-71
2022/10/11 06:10:43;;;;;;;2.25;2.10;;;8.30;99.90;;;;;;6242912;23;20494;-69
2022/10/11 06:13:10;;;;;;;2.25;1.70;;;8.40;99.90;;;;;;6242862;23;20183;-69
2022/10/11 06:15:39;;;;;;;13.15;1.75;;;8.40;99.90;;;;;;6242778;22;20711;-69
2022/10/11 06:18:07;;;;;;;2.22;2.15;;;8.40;99.90;;;;;;6242802;23;20183;-67
2022/10/11 06:20:33;;;;;;;6.80;1.50;;;8.40;99.90;;;;;;6242705;23;20183;-68
2022/10/11 06:23:00;;;;;;;7.10;1.75;;;8.50;99.90;;;;;;6242320;23;20184;-69
2022/10/11 06:25:27;;;;;;;2.75;1.40;;;8.50;99.90;;;;;;6242498;22;20207;-68
2022/10/11 06:27:53;;;;;;;1.30;1.05;;;8.50;99.90;;;;;;6243215;23;20188;-69
2022/10/11 06:30:20;;;;;;;0.82;0.82;;;8.50;99.90;;;;;;6242551;23;20669;-67
2022/10/11 06:32:47;;;;;;;1.20;1.10;;;8.60;99.90;;;;;;6242332;23;20192;-68
2022/10/11 06:35:15;;;;;;;4.07;0.98;;;8.60;99.90;;;;;;6242395;22;20208;-68
2022/10/11 06:37:41;;;;;;;1.08;0.90;;;8.60;99.90;;;;;;6242686;23;20182;-68
2022/10/11 06:40:09;;;;;;;2.83;0.93;;;8.70;99.90;;;;;;6242958;23;20187;-68
2022/10/11 06:42:35;;;;;;;5.95;1.80;;;8.80;99.90;;;;;;6242919;23;20179;-68
2022/10/11 06:45:02;;;;;;;1.60;1.50;;;8.90;99.90;;;;;;6242653;22;20203;-68
2022/10/11 06:47:29;;;;;;;1.00;1.00;;;9.00;99.90;;;;;;6242815;23;20203;-68
2022/10/11 06:49:55;;;;;;;1.05;1.05;;;9.10;99.90;;;;;;6242820;23;20183;-69
2022/10/11 06:52:23;;;;;;;0.82;0.80;;;9.20;99.90;;;;;;6242258;23;20183;-67
2022/10/11 06:54:50;;;;;;;1.88;1.40;;;9.30;99.90;;;;;;6242112;22;20205;-67
2022/10/11 06:57:17;;;;;;;3.35;1.75;;;9.30;99.90;;;;;;6243096;23;20186;-69
2022/10/11 06:59:43;;;;;;;0.95;0.95;;;9.30;99.90;;;;;;6243180;23;20188;-68
2022/10/11 07:02:10;;;;;;;3.20;1.40;;;9.30;99.90;;;;;;6242918;23;20183;-69
2022/10/11 07:04:38;;;;;;;1.35;1.25;;;9.40;99.90;;;;;;6242024;22;20212;-67
2022/10/11 07:07:05;;;;;;;1.38;1.38;;;9.50;99.90;;;;;;6242600;23;20201;-69
2022/10/11 07:09:34;;;;;;;3.42;0.85;;;9.50;99.90;;;;;;6252828;23;20187;-68
2022/10/11 07:12:00;;;;;;;1.05;1.00;;;9.60;99.90;;;;;;6243067;23;20662;-69
2022/10/11 07:14:27;;;;;;;1.65;1.65;;;9.70;99.90;;;;;;6242553;22;20526;-68
2022/10/11 07:16:54;;;;;;;1.00;1.00;;;9.70;99.90;;;;;;6245317;23;20169;-69
2022/10/11 07:19:20;;;;;;;3.65;1.23;;;9.70;99.90;;;;;;6246398;23;20188;-70
2022/10/11 07:21:47;;;;;;;2.55;1.20;;;9.70;99.90;;;;;;6244989;23;20182;-69
2022/10/11 07:24:14;;;;;;;0.65;0.65;;;9.80;99.90;;;;;;6246142;22;20211;-69
2022/10/11 07:26:42;;;;;;;5.50;0.90;;;9.80;99.90;;;;;;6246106;23;20207;-69
2022/10/11 07:29:10;;;;;;;0.40;0.40;;;9.80;99.90;;;;;;6245946;23;20638;-69
2022/10/11 07:31:38;;;;;;;1.75;0.90;;;9.80;99.90;;;;;;6246433;23;20180;-68
2022/10/11 07:34:05;;;;;;;2.85;1.38;;;9.80;99.90;;;;;;6245568;22;20187;-70
2022/10/11 07:36:32;;;;;;;4.28;0.68;;;9.90;99.90;;;;;;6244592;23;20643;-69
2022/10/11 07:38:58;;;;;;;1.75;1.00;;;9.90;99.90;;;;;;6245872;23;20189;-69
2022/10/11 07:41:25;;;;;;;1.00;1.00;;;9.90;99.90;;;;;;6245967;23;20256;-70
2022/10/11 07:43:54;;;;;;;1.10;1.10;;;10.00;99.90;;;;;;6246152;22;20299;-70
2022/10/11 07:46:20;;;;;;;3.20;0.90;;;10.00;99.90;;;;;;6245849;23;20204;-69
2022/10/11 07:48:48;;;;;;;0.90;0.90;;;10.00;99.90;;;;;;6246571;23;20192;-70
2022/10/11 07:51:18;;;;;;;1.35;1.00;;;10.10;99.90;;;;;;6245264;23;20191;-70
2022/10/11 07:53:46;;;;;;;0.65;0.65;;;10.10;99.90;;;;;;6245388;23;20178;-69
2022/10/11 07:56:15;;;;;;;4.10;1.75;;;10.30;99.90;;;;;;6246181;22;20208;-70
2022/10/11 07:58:42;;;;;;;0.70;0.70;;;10.50;99.90;;;;;;6246225;23;20191;-70
2022/10/11 08:01:13;;;;;;;1.05;0.57;;;10.60;99.90;;;;;;6246068;23;20186;-70
2022/10/11 08:03:39;;;;;;;0.60;0.60;;;10.60;99.90;;;;;;6245789;23;20257;-70
2022/10/11 08:06:08;;;;;;;1.00;0.93;;;10.50;99.90;;;;;;6245580;22;20204;-69
2022/10/11 08:08:35;;;;;;;2.38;1.10;;;10.50;99.90;;;;;;6245198;23;20184;-70
2022/10/11 08:11:02;;;;;;;8.50;1.15;;;10.50;99.90;;;;;;6246120;23;20182;-70
2022/10/11 08:13:29;;;;;;;1.52;1.10;;;10.50;99.90;;;;;;6245395;23;20244;-70
2022/10/11 08:15:55;;;;;;;0.80;0.80;;;10.50;99.90;;;;;;6245516;22;20210;-70
2022/10/11 08:18:24;;;;;;;5.78;1.00;;;10.50;99.90;;;;;;6246483;23;20179;-70
2022/10/11 08:20:50;;;;;;;4.55;1.33;;;10.60;99.90;;;;;;6245191;23;20658;-69
2022/10/11 08:23:18;;;;;;;3.30;1.00;;;10.60;99.90;;;;;;6245841;23;20529;-69
2022/10/11 08:25:46;;;;;;;1.60;1.50;;;10.60;99.90;;;;;;6246097;22;20204;-70
2022/10/11 08:28:16;;;;;;;1.42;1.40;;;10.70;99.90;;;;;;6244434;23;20206;-70
2022/10/11 08:30:47;;;;;;;3.90;1.45;;;10.70;99.90;;;;;;6244266;23;20250;-69
2022/10/11 08:33:14;;;;;;;0.95;0.55;;;10.80;99.90;;;;;;6243980;23;20174;-69
2022/10/11 08:35:42;;;;;;;0.70;0.70;;;10.80;99.90;;;;;;6243604;22;20204;-69
2022/10/11 08:38:09;;;;;;;0.52;0.50;;;10.80;99.90;;;;;;6244338;23;20180;-70
2022/10/11 08:40:35;;;;;;;4.03;0.80;;;10.90;99.90;;;;;;6243788;23;20185;-68
2022/10/11 08:43:06;;;;;;;1.45;0.93;;;11.00;99.90;;;;;;6244263;23;20186;-69
2022/10/11 08:45:42;;;;;;;1.63;0.93;;;11.00;99.90;;;;;;6243935;22;20671;-69
2022/10/11 08:48:16;;;;;;;4.57;0.60;;;11.10;99.90;;;;;;6243427;23;20654;-68
2022/10/11 08:50:47;;;;;;;1.75;0.60;;;11.10;99.90;;;;;;6243741;23;20220;-69
2022/10/11 08:53:19;;;;;;;0.90;0.82;;;11.20;99.90;;;;;;6243183;23;20174;-69
2022/10/11 08:55:49;;;;;;;0.85;0.70;;;11.20;99.90;;;;;;6244187;22;20203;-69
2022/10/11 08:58:20;;;;;;;8.25;1.95;;;11.30;99.90;;;;;;6243874;23;20238;-68
2022/10/11 09:00:51;;;;;;;0.50;0.50;;;11.30;99.90;;;;;;6243976;23;20193;-69
2022/10/11 09:03:28;;;;;;;6.47;1.23;;;11.30;99.90;;;;;;6243579;23;20187;-68
2022/10/11 09:06:06;;;;;;;2.90;0.73;;;11.40;99.90;;;;;;6243156;22;20206;-68
2022/10/11 09:08:43;;;;;;;4.45;0.73;;;11.40;99.90;;;;;;6243357;23;20188;-69
2022/10/11 09:11:17;;;;;;;5.00;1.00;;;11.50;99.90;;;;;;6243883;23;20171;-69
2022/10/11 09:13:58;;;;;;;0.32;0.32;;;11.50;99.90;;;;;;6243712;23;20197;-69
2022/10/11 09:16:36;;;;;;;0.40;0.40;;;11.60;99.90;;;;;;6243824;23;20468;-70
2022/10/11 09:19:28;;;;;;;1.15;1.05;;;11.60;99.90;;;;;;6244035;23;20167;-69
2022/10/11 09:22:07;;;;;;;5.97;0.75;;;11.70;99.90;;;;;;6242680;23;20493;-70
2022/10/11 09:24:49;;;;;;;2.38;0.65;;;11.70;99.90;;;;;;6243973;22;20205;-68
2022/10/11 09:27:20;;;;;;;1.33;0.40;;;11.80;99.90;;;;;;6243504;23;20514;-69
2022/10/11 09:29:56;;;;;;;4.18;0.68;;;11.90;99.90;;;;;;6244127;23;20544;-70
2022/10/11 09:32:28;;;;;;;0.35;0.35;;;11.90;99.90;;;;;;6243354;23;20162;-69
2022/10/11 09:35:00;;;;;;;3.20;0.95;;;12.00;99.90;;;;;;6242649;22;20215;-68
2022/10/11 09:37:33;;;;;;;3.83;0.70;;;12.10;99.90;;;;;;6243549;23;20533;-68
2022/10/11 09:40:10;;;;;;;2.22;0.50;;;12.10;99.90;;;;;;6243336;23;20171;-69
2022/10/11 09:42:37;;;;;;;1.05;0.57;;;12.20;99.90;;;;;;6243597;23;20162;-68
2022/10/11 09:45:14;;;;;;;1.40;0.33;;;12.20;99.90;;;;;;6243675;22;20203;-69
2022/10/11 09:47:41;;;;;;;2.15;0.85;;;12.30;99.90;;;;;;6254046;23;20441;-69
2022/10/11 09:50:15;;;;;;;0.35;0.35;;;12.40;99.90;;;;;;6243064;23;20490;-69
2022/10/11 09:52:50;;;;;;;0.40;0.40;;;12.50;99.90;;;;;;6242956;23;20171;-69
2022/10/11 09:55:32;;;;;;;1.52;1.02;;;12.50;99.90;;;;;;6243590;22;20446;-69
2022/10/11 09:57:59;;;;;;;0.43;0.43;;;12.50;99.90;;;;;;6243324;23;20640;-70
2022/10/11 10:00:27;;;;;;;0.87;0.87;;;12.60;99.90;;;;;;6243575;23;20442;-69
2022/10/11 10:02:55;;;;;;;0.50;0.50;;;12.60;99.90;;;;;;6243154;23;20430;-70
2022/10/11 10:05:23;;;;;;;2.08;0.60;;;12.70;99.90;;;;;;6242403;22;20442;-70
2022/10/11 10:08:08;;;;;;;0.20;0.20;;;12.80;99.90;;;;;;6242429;23;20198;-70
2022/10/11 10:10:38;;;;;;;2.33;0.93;;;12.80;99.90;;;;;;6243362;23;20418;-70
2022/10/11 10:13:15;;;;;;;3.57;0.60;;;13.00;99.90;;;;;;6242727;23;20421;-70
2022/10/11 10:15:46;;;;;;;0.93;0.30;;;13.00;99.90;;;;;;6243306;22;20456;-70
2022/10/11 10:18:21;;;;;;;0.97;0.50;;;13.10;99.90;;;;;;6243647;23;20429;-70
2022/10/11 10:20:53;;;;;;;0.43;0.43;;;13.10;99.90;;;;;;6242451;23;20406;-69
2022/10/11 10:23:26;;;;;;;3.73;0.33;;;13.10;99.90;;;;;;6242746;23;20459;-68
2022/10/11 10:26:10;;;;;;;1.40;1.27;;;13.20;99.90;;;;;;6243119;22;20443;-70
2022/10/11 10:28:37;;;;;;;0.40;0.40;;;13.30;99.90;;;;;;6242772;23;20431;-69
2022/10/11 10:31:03;;;;;;;3.93;0.40;;;13.30;99.90;;;;;;6243458;23;20935;-69
2022/10/11 10:33:34;;;;;;;1.63;0.60;;;13.40;99.90;;;;;;6243063;23;20445;-70
2022/10/11 10:36:05;;;;;;;0.30;0.30;;;13.50;99.90;;;;;;6242642;22;20811;-69
2022/10/11 10:38:37;;;;;;;12.10;0.73;;;13.60;99.90;;;;;;6242394;23;20419;-70
2022/10/11 10:41:08;;;;;;;1.50;0.73;;;13.60;99.90;;;;;;6243473;23;20750;-69
2022/10/11 10:43:37;;;;;;;5.97;0.90;;;13.60;99.90;;;;;;6216212;23;20411;-69
2022/10/11 10:46:25;;;;;;;1.07;0.97;;;13.70;99.90;;;;;;6243019;22;20442;-70
2022/10/11 10:48:57;;;;;;;1.10;0.50;;;13.80;99.90;;;;;;6242853;23;20430;-68
2022/10/11 10:51:34;;;;;;;0.60;0.60;;;13.90;99.90;;;;;;6241735;23;20980;-69
2022/10/11 10:54:13;;;;;;;3.33;0.33;;;14.00;99.90;;;;;;6243208;22;20517;-69
2022/10/11 10:56:46;;;;;;;1.23;0.73;;;14.10;99.90;;;;;;6242719;23;20414;-69
2022/10/11 10:59:29;;;;;;;0.60;0.20;;;14.10;99.90;;;;;;6243391;23;20727;-69
2022/10/11 11:02:02;;;;;;;0.67;0.60;;;14.20;99.90;;;;;;6242848;23;20414;-69
2022/10/11 11:04:32;;;;;;;1.70;0.80;;;14.20;99.90;;;;;;6242767;22;20463;-69
2022/10/11 11:07:03;;;;;;;6.07;0.93;;;14.40;99.90;;;;;;6241652;23;20431;-68
2022/10/11 11:09:44;;;;;;;3.90;0.40;;;14.40;99.90;;;;;;6242459;23;20893;-70
2022/10/11 11:12:27;;;;;;;0.43;0.43;;;14.40;99.90;;;;;;6242586;23;20419;-68
2022/10/11 11:15:01;;;;;;;2.90;0.53;;;14.30;99.90;;;;;;6242697;22;20459;-69
2022/10/11 11:17:38;;;;;;;1.13;0.40;;;14.30;99.90;;;;;;6242287;23;20723;-70
2022/10/11 11:20:24;;;;;;;2.17;0.50;;;14.30;99.90;;;;;;6242606;23;20430;-69
2022/10/11 11:23:00;;;;;;;0.77;0.77;;;14.30;99.90;;;;;;6241421;23;20407;-68
2022/10/11 11:25:36;;;;;;;0.70;0.70;;;14.40;99.90;;;;;;6252881;22;20497;-69
2022/10/11 11:28:13;;;;;;;2.17;0.50;;;14.50;99.90;;;;;;6242739;23;20431;-69
2022/10/11 11:30:47;;;;;;;1.90;0.60;;;14.50;99.90;;;;;;6243501;23;20411;-69
2022/10/11 11:33:26;;;;;;;1.87;0.40;;;14.60;99.90;;;;;;6242403;23;20407;-69
2022/10/11 11:35:57;;;;;;;5.23;0.60;;;14.70;99.90;;;;;;6242069;22;20957;-70
2022/10/11 11:38:33;;;;;;;2.77;0.63;;;14.70;99.90;;;;;;6242468;23;20401;-69
2022/10/11 11:41:04;;;;;;;0.37;0.37;;;14.80;99.90;;;;;;6242766;23;20407;-69
2022/10/11 11:43:36;;;;;;;3.20;1.30;;;14.90;99.90;;;;;;6242353;23;20412;-69
2022/10/11 11:46:08;;;;;;;3.97;1.13;;;15.00;99.90;;;;;;6243281;22;20965;-69
2022/10/11 11:48:35;;;;;;;1.13;0.40;;;15.10;99.90;;;;;;6242494;23;20452;-69
2022/10/11 11:51:08;;;;;;;3.40;0.83;;;15.20;99.90;;;;;;6242405;23;20431;-68
2022/10/11 11:53:55;;;;;;;1.17;0.40;;;15.20;99.90;;;;;;6241835;23;20404;-68
2022/10/11 11:56:27;;;;;;;1.40;0.30;;;15.30;99.90;;;;;;6242847;23;20407;-69
2022/10/11 11:59:03;;;;;;;1.60;0.30;;;15.30;99.90;;;;;;6243140;23;20404;-68
2022/10/11 12:01:37;;;;;;;2.00;0.80;;;15.30;99.90;;;;;;6242755;23;20409;-70
2022/10/11 12:04:09;;;;;;;1.17;0.80;;;15.40;99.90;;;;;;6243736;22;20412;-69
2022/10/11 12:06:37;;;;;;;0.77;0.57;;;15.50;99.90;;;;;;6244070;23;20409;-69
2022/10/11 12:09:08;;;;;;;1.60;0.63;;;15.50;99.90;;;;;;6244541;23;20776;-70
2022/10/11 12:11:50;;;;;;;4.53;1.07;;;15.50;99.90;;;;;;6244605;23;20735;-69
2022/10/11 12:14:26;;;;;;;1.80;0.63;;;15.60;99.90;;;;;;6244299;22;20451;-70
2022/10/11 12:17:14;;;;;;;1.50;0.87;;;15.60;99.90;;;;;;6244441;23;20446;-69
2022/10/11 12:19:43;;;;;;;0.73;0.73;;;15.50;99.90;;;;;;6243742;23;20464;-70
2022/10/11 12:22:18;;;;;;;1.80;0.70;;;15.50;99.90;;;;;;6244222;23;20428;-69
2022/10/11 12:24:56;;;;;;;2.73;0.83;;;15.50;99.90;;;;;;6244263;22;20452;-69
2022/10/11 12:27:40;;;;;;;6.87;0.60;;;15.40;99.90;;;;;;6244605;23;20426;-69
2022/10/11 12:30:37;;;;;;;2.50;0.60;;;15.40;99.90;;;;;;6245158;23;20421;-69
2022/10/11 12:33:12;;;;;;;3.07;1.47;;;15.40;99.90;;;;;;6218614;23;20756;-69
2022/10/11 12:35:50;;;;;;;2.20;1.07;;;15.40;99.90;;;;;;6243711;22;20438;-69
2022/10/11 12:38:22;;;;;;;0.50;0.50;;;15.30;99.90;;;;;;6243604;23;20436;-69
2022/10/11 12:40:50;;;;;;;0.50;0.50;;;15.40;99.90;;;;;;6244519;23;20408;-70
2022/10/11 12:43:35;;;;;;;5.97;0.70;;;15.40;99.90;;;;;;6243574;23;20910;-68
2022/10/11 12:46:33;;;;;;;1.40;0.37;;;15.40;99.90;;;;;;6244419;22;20467;-69
2022/10/11 12:49:17;;;;;;;2.33;0.57;;;15.40;99.90;;;;;;6244561;23;20461;-68
2022/10/11 12:51:53;;;;;;;0.83;0.83;;;15.50;99.90;;;;;;6243159;23;20439;-69
2022/10/11 12:54:50;;;;;;;3.80;0.40;;;15.50;99.90;;;;;;6244266;22;20440;-68
2022/10/11 12:57:51;;;;;;;0.40;0.40;;;15.40;99.90;;;;;;6244569;23;20405;-69
2022/10/11 13:00:27;;;;;;;12.00;1.73;;;15.40;99.90;;;;;;6244196;23;20425;-69
2022/10/11 13:02:55;;;;;;;1.80;0.90;;;15.40;99.90;;;;;;6244000;23;20414;-69
2022/10/11 13:05:24;;;;;;;4.03;0.93;;;15.40;99.90;;;;;;6243755;22;20448;-68
2022/10/11 13:07:53;;;;;;;0.73;0.33;;;15.40;99.90;;;;;;6243606;23;20441;-70
2022/10/11 13:10:24;;;;;;;0.60;0.60;;;15.40;99.90;;;;;;6243866;23;20425;-69
2022/10/11 13:12:53;;;;;;;5.70;0.90;;;15.40;99.90;;;;;;6243709;23;20413;-69
2022/10/11 13:15:23;;;;;;;1.23;0.87;;;15.40;99.90;;;;;;6243486;22;20455;-69
2022/10/11 13:17:52;;;;;;;2.47;1.13;;;15.40;99.90;;;;;;6244027;23;20816;-69
2022/10/11 13:20:23;;;;;;;1.03;0.50;;;15.40;99.90;;;;;;6243582;23;20488;-69
2022/10/11 13:22:52;;;;;;;0.60;0.60;;;15.40;99.90;;;;;;6243443;23;20411;-68
2022/10/11 13:25:23;;;;;;;0.30;0.30;;;15.30;99.90;;;;;;6243701;22;20441;-69
2022/10/11 13:27:52;;;;;;;1.90;0.60;;;15.30;99.90;;;;;;6244470;23;20424;-69
2022/10/11 13:30:24;;;;;;;0.20;0.20;;;15.30;99.90;;;;;;6249843;23;20427;-69
2022/10/11 13:32:51;;;;;;;0.60;0.40;;;15.20;99.90;;;;;;6250528;23;20404;-69
2022/10/11 13:35:32;;;;;;;1.87;0.63;;;15.10;99.90;;;;;;6248185;22;20449;-69
2022/10/11 13:38:00;;;;;;;0.30;0.30;;;15.10;99.90;;;;;;6245882;23;20408;-69
2022/10/11 13:40:27;;;;;;;2.07;0.93;;;15.00;99.90;;;;;;6246517;23;20531;-68
2022/10/11 13:42:54;;;;;;;1.33;0.80;;;15.00;99.90;;;;;;6245078;23;20432;-70
2022/10/11 13:45:24;;;;;;;4.20;0.93;;;14.90;99.90;;;;;;6246066;22;20501;-68
2022/10/11 13:47:53;;;;;;;1.47;1.10;;;14.80;99.90;;;;;;6244731;23;20854;-68
2022/10/11 13:50:29;;;;;;;2.23;1.40;;;14.70;99.90;;;;;;6243749;23;20844;-68
2022/10/11 13:52:58;;;;;;;0.53;0.53;;;14.70;99.90;;;;;;6242582;23;20471;-69
2022/10/11 13:55:30;;;;;;;2.80;0.93;;;14.60;99.90;;;;;;6243729;22;20446;-68
2022/10/11 13:57:59;;;;;;;2.97;1.17;;;14.50;99.90;;;;;;6243626;23;20403;-68
2022/10/11 14:00:31;;;;;;;10.13;1.27;;;14.50;99.90;;;;;;6242896;23;20481;-69
2022/10/11 14:03:02;;;;;;;2.53;1.40;;;14.40;99.90;;;;;;6243194;23;20406;-69
2022/10/11 14:05:33;;;;;;;0.57;0.53;;;14.30;99.90;;;;;;6243041;22;20477;-69
2022/10/11 14:08:02;;;;;;;4.20;1.07;;;14.20;99.90;;;;;;6242596;23;20438;-70
2022/10/11 14:10:29;;;;;;;0.40;0.33;;;14.10;99.90;;;;;;6243779;23;20434;-69
2022/10/11 14:13:05;;;;;;;2.83;0.50;;;14.00;99.90;;;;;;6242780;23;20427;-69
2022/10/11 14:15:35;;;;;;;2.93;0.97;;;14.00;99.90;;;;;;6242967;22;20963;-69
2022/10/11 14:18:23;;;;;;;0.63;0.60;;;14.00;99.90;;;;;;6243397;23;20765;-69
2022/10/11 14:20:49;;;;;;;0.97;0.80;;;14.00;99.90;;;;;;6242292;23;20430;-68
2022/10/11 14:23:16;;;;;;;0.37;0.37;;;14.00;99.90;;;;;;6242091;23;20433;-71
2022/10/11 14:25:43;;;;;;;0.50;0.50;;;14.00;99.90;;;;;;6243001;22;20458;-70
2022/10/11 14:28:12;;;;;;;2.10;0.50;;;14.00;99.90;;;;;;6242404;23;20445;-71
2022/10/11 14:30:41;;;;;;;6.43;0.77;;;14.00;99.90;;;;;;6242916;23;20423;-70
2022/10/11 14:33:08;;;;;;;2.80;0.80;;;14.00;99.90;;;;;;6242848;23;20423;-69
2022/10/11 14:35:35;;;;;;;1.20;0.40;;;14.00;99.90;;;;;;6242468;22;20444;-69
2022/10/11 14:38:02;;;;;;;0.97;0.40;;;14.10;99.90;;;;;;6242478;23;20424;-69
2022/10/11 14:40:31;;;;;;;0.47;0.47;;;14.10;99.90;;;;;;6243224;23;20423;-70
2022/10/11 14:42:57;;;;;;;0.67;0.67;;;14.10;99.90;;;;;;6242989;23;20751;-71
2022/10/11 14:45:24;;;;;;;1.90;1.13;;;14.10;99.90;;;;;;6242322;22;20990;-70
2022/10/11 14:47:52;;;;;;;3.30;1.13;;;14.20;99.90;;;;;;6243021;23;20423;-71
2022/10/11 14:50:27;;;;;;;0.87;0.73;;;14.20;99.90;;;;;;6242860;23;20443;-71
2022/10/11 14:52:55;;;;;;;1.33;0.40;;;14.20;99.90;;;;;;6242557;23;20925;-71
2022/10/11 14:55:22;;;;;;;4.10;0.63;;;14.20;99.90;;;;;;6243188;22;20449;-71
2022/10/11 14:57:49;;;;;;;1.50;0.40;;;14.20;99.90;;;;;;6242978;23;20422;-68
2022/10/11 15:00:19;;;;;;;0.40;0.40;;;14.30;99.90;;;;;;6242665;23;20910;-70
2022/10/11 15:02:46;;;;;;;2.30;0.80;;;14.20;99.90;;;;;;6242836;23;20461;-70
2022/10/11 15:05:14;;;;;;;0.53;0.47;;;14.20;99.90;;;;;;6242763;22;20447;-70
2022/10/11 15:07:41;;;;;;;1.83;1.63;;;14.20;99.90;;;;;;6242558;23;20427;-71
2022/10/11 15:10:17;;;;;;;0.70;0.70;;;14.20;99.90;;;;;;6242709;23;20447;-71
2022/10/11 15:12:44;;;;;;;10.90;1.47;;;14.20;99.90;;;;;;6242364;23;20412;-70
2022/10/11 15:15:11;;;;;;;4.10;1.20;;;14.20;99.90;;;;;;6242799;22;20977;-71
2022/10/11 15:17:37;;;;;;;1.17;0.77;;;14.20;99.90;;;;;;6242916;23;20422;-71
2022/10/11 15:20:05;;;;;;;0.93;0.57;;;14.20;99.90;;;;;;6242689;23;20419;-70
2022/10/11 15:22:33;;;;;;;0.30;0.30;;;14.20;99.90;;;;;;6242513;23;20427;-71
2022/10/11 15:25:00;;;;;;;2.00;1.13;;;14.20;99.90;;;;;;6243306;22;20449;-71
2022/10/11 15:27:27;;;;;;;0.87;0.47;;;14.10;99.90;;;;;;6242758;23;20936;-71
2022/10/11 15:29:54;;;;;;;4.87;0.70;;;14.10;99.90;;;;;;6242882;23;20557;-71
2022/10/11 15:32:21;;;;;;;1.20;0.80;;;14.10;99.90;;;;;;6243121;23;20414;-71
2022/10/11 15:34:47;;;;;;;6.70;1.40;;;14.00;99.90;;;;;;6242728;22;20468;-71
2022/10/11 15:37:14;;;;;;;5.50;0.50;;;14.00;99.90;;;;;;6243233;23;20752;-71
2022/10/11 15:39:42;;;;;;;1.70;0.53;;;14.00;99.90;;;;;;6244774;23;20415;-72
2022/10/11 15:42:09;;;;;;;1.37;1.27;;;14.00;99.90;;;;;;6245005;23;20439;-69
2022/10/11 15:44:36;;;;;;;0.80;0.80;;;13.90;99.90;;;;;;6244434;22;20442;-68
2022/10/11 15:47:02;;;;;;;3.00;0.73;;;13.90;99.90;;;;;;6244490;23;20429;-69
2022/10/11 15:49:29;;;;;;;1.70;0.40;;;13.90;99.90;;;;;;6244918;23;20458;-70
2022/10/11 15:51:56;;;;;;;0.50;0.50;;;13.90;99.90;;;;;;6243187;23;20947;-68
2022/10/11 15:54:22;;;;;;;2.03;0.90;;;13.80;99.90;;;;;;6254630;22;20447;-70
2022/10/11 15:56:50;;;;;;;0.60;0.60;;;13.80;99.90;;;;;;6243961;23;20423;-71
2022/10/11 15:59:17;;;;;;;3.27;1.00;;;13.70;99.90;;;;;;6244674;23;20427;-72
2022/10/11 16:01:43;;;;;;;2.00;0.70;;;13.70;99.90;;;;;;6244423;23;20886;-71
2022/10/11 16:04:10;;;;;;;0.97;0.33;;;13.70;99.90;;;;;;6244198;22;20423;-71
2022/10/11 16:06:37;;;;;;;3.60;1.03;;;13.60;99.90;;;;;;6243506;23;20427;-71
2022/10/11 16:09:04;;;;;;;1.03;1.03;;;13.60;99.90;;;;;;6244653;23;20493;-69
2022/10/11 16:11:30;;;;;;;3.63;1.50;;;13.60;99.90;;;;;;6244544;23;20526;-69
2022/10/11 16:13:58;;;;;;;2.00;1.70;;;13.60;99.90;;;;;;6244120;22;20423;-72
2022/10/11 16:16:25;;;;;;;1.17;1.17;;;13.50;99.90;;;;;;6244451;23;20411;-72
2022/10/11 16:18:52;;;;;;;0.80;0.80;;;13.50;99.90;;;;;;6244331;23;20815;-71
2022/10/11 16:21:20;;;;;;;2.37;1.27;;;13.50;99.90;;;;;;6243532;23;20445;-72
2022/10/11 16:23:47;;;;;;;11.43;2.83;;;13.40;99.90;;;;;;6244235;23;20429;-71
2022/10/11 16:26:15;;;;;;;1.90;1.40;;;13.40;99.90;;;;;;6243936;22;20442;-71
2022/10/11 16:28:42;;;;;;;3.73;2.20;;;13.40;99.90;;;;;;6244505;23;20422;-72
2022/10/11 16:31:13;;;;;;;3.17;2.00;;;13.30;99.90;;;;;;6243798;23;20889;-71
2022/10/11 16:33:45;;;;;;;1.43;1.33;;;13.30;99.90;;;;;;6244105;23;20419;-71
2022/10/11 16:38:56;;;;;;;1.80;1.47;;;13.30;99.90;;;;;;6246258;23;20492;-72
2022/10/11 16:41:22;;;;;;;0.50;0.50;;;13.20;99.90;;;;;;6246255;23;20430;-72
2022/10/11 16:43:51;;;;;;;4.33;1.17;;;13.20;99.90;;;;;;6245662;23;20422;-71
2022/10/11 16:46:19;;;;;;;0.70;0.70;;;13.20;99.90;;;;;;6244767;23;20952;-71
2022/10/11 16:48:46;;;;;;;4.90;0.80;;;13.20;99.90;;;;;;6243904;23;20938;-71
2022/10/11 16:51:13;;;;;;;1.20;1.10;;;13.10;99.90;;;;;;6243489;23;20941;-71
2022/10/11 16:53:41;;;;;;;7.03;1.90;;;13.10;99.90;;;;;;6243795;23;20426;-71
2022/10/11 16:56:09;;;;;;;0.50;0.50;;;13.10;99.90;;;;;;6244277;22;20446;-71
2022/10/11 16:58:36;;;;;;;1.30;1.20;;;13.10;99.90;;;;;;6244533;23;20766;-71
2022/10/11 17:01:08;;;;;;;8.23;2.77;;;13.00;99.90;;;;;;6244615;23;20418;-71
2022/10/11 17:03:36;;;;;;;3.53;1.50;;;13.00;99.90;;;;;;6244361;23;20407;-72
2022/10/11 17:06:03;;;;;;;3.77;2.80;;;13.00;99.90;;;;;;6244463;22;20437;-71
2022/10/11 17:08:30;;;;;;;3.40;2.87;;;13.00;99.90;;;;;;6244308;23;20421;-71